Time;durP1;ratioP1;P1;durP2;ratioP2;P2;SDS_P1;SDS_P2;PMS_P1;PMS_P2;Temp;Humidity;BMP_temperature;BMP_pressure;BME280_temperature;BME280_humidity;BME280_pressure;Samples;Min_cycle;Max_cycle;Signal;HPM_P1;HPM_P2
2021/04/01 00:00:55;;;;;;;15.63;13.93;;;;;;;27.55;14.02;94776.59;5104375;28;20043;-41
2021/04/01 00:03:22;;;;;;;15.55;13.85;;;;;;;27.55;14.08;94771.22;5116451;28;20059;-41
2021/04/01 00:05:50;;;;;;;16.90;13.38;;;;;;;27.48;13.82;94771.22;5116282;28;20365;-41
2021/04/01 00:08:17;;;;;;;14.80;12.85;;;;;;;27.59;13.95;94769.31;5095904;28;20040;-41
2021/04/01 00:10:45;;;;;;;15.85;13.80;;;;;;;27.59;14.21;94765.88;5095081;28;20070;-41
2021/04/01 00:13:13;;;;;;;14.98;13.10;;;;;;;27.45;14.49;94755.13;5076687;28;20050;-41
2021/04/01 00:15:41;;;;;;;15.93;12.65;;;;;;;27.75;13.74;94754.75;5094520;28;20055;-40
2021/04/01 00:18:17;;;;;;;16.13;13.27;;;;;;;27.59;14.16;94747.84;5077188;28;20071;-42
2021/04/01 00:20:44;;;;;;;16.15;12.63;;;;;;;27.41;14.24;94743.63;5057957;28;20051;-42
2021/04/01 00:23:12;;;;;;;13.55;12.02;;;;;;;27.49;13.89;94739.78;5075123;28;20367;-46
2021/04/01 00:25:39;;;;;;;14.65;12.73;;;;;;;27.28;14.33;94733.25;5056963;28;20048;-42
2021/04/01 00:28:06;;;;;;;13.98;12.18;;;;;;;27.46;14.11;94733.25;5074609;28;20052;-44
2021/04/01 00:30:34;;;;;;;15.65;12.30;;;;;;;27.22;14.17;94731.34;5075032;28;20459;-43
2021/04/01 00:33:01;;;;;;;14.05;12.43;;;;;;;27.57;13.96;94735.94;5075151;28;20119;-41
2021/04/01 00:35:28;;;;;;;14.27;11.80;;;;;;;27.51;14.00;94724.06;5075022;28;20048;-42
2021/04/01 00:37:55;;;;;;;13.05;11.73;;;;;;;27.48;14.30;94733.66;5074931;28;20059;-41
2021/04/01 00:40:24;;;;;;;13.50;12.05;;;;;;;27.22;14.57;94731.34;5075099;28;20439;-49
2021/04/01 00:42:51;;;;;;;13.68;11.07;;;;;;;27.50;14.36;94725.97;5077506;28;20399;-41
2021/04/01 00:45:19;;;;;;;15.18;12.20;;;;;;;27.41;14.42;94717.56;5095310;28;20043;-41
2021/04/01 00:47:48;;;;;;;15.05;12.38;;;;;;;27.47;14.27;94702.59;5094901;28;20055;-45
2021/04/01 00:50:21;;;;;;;15.13;13.52;;;;;;;27.37;14.44;94698.00;5081175;28;20045;-51
2021/04/01 00:52:48;;;;;;;17.38;14.25;;;;;;;27.12;14.44;94705.28;5074980;28;20047;-45
2021/04/01 00:55:16;;;;;;;16.50;13.88;;;;;;;27.14;14.63;94689.56;5075669;28;20045;-41
2021/04/01 00:57:51;;;;;;;17.65;13.35;;;;;;;27.22;14.24;94691.09;5078762;28;20455;-43
2021/04/01 01:00:25;;;;;;;14.00;12.50;;;;;;;27.25;14.13;94682.28;5078972;28;20059;-41
2021/04/01 01:02:53;;;;;;;15.05;13.23;;;;;;;27.32;14.05;94682.25;5078685;28;20387;-41
2021/04/01 01:05:21;;;;;;;15.07;12.48;;;;;;;27.47;13.84;94675.75;5078613;28;20041;-42
2021/04/01 01:07:48;;;;;;;13.85;11.85;;;;;;;27.57;13.69;94677.63;5078138;28;20059;-50
2021/04/01 01:10:18;;;;;;;13.35;11.95;;;;;;;27.32;13.99;94674.22;5078430;28;20056;-41
2021/04/01 01:12:45;;;;;;;13.80;11.65;;;;;;;27.35;13.74;94660.03;5079730;28;20434;-41
2021/04/01 01:15:14;;;;;;;14.60;11.55;;;;;;;27.39;13.98;94658.13;5098363;28;20048;-42
2021/04/01 01:17:41;;;;;;;13.40;11.43;;;;;;;27.26;14.01;94665.78;5098716;28;20047;-42
2021/04/01 01:20:10;;;;;;;16.65;11.82;;;;;;;27.30;13.95;94663.09;5098370;28;20051;-41
2021/04/01 01:22:37;;;;;;;14.43;12.07;;;;;;;27.10;13.91;94665.44;5098717;28;20044;-44
2021/04/01 01:25:09;;;;;;;14.93;11.40;;;;;;;27.44;13.73;94667.69;5097529;28;20044;-41
2021/04/01 01:27:40;;;;;;;12.25;10.45;;;;;;;27.17;13.99;94664.66;5098717;28;20048;-42
2021/04/01 01:30:10;;;;;;;11.82;10.60;;;;;;;27.40;13.61;94665.00;5098973;28;20519;-41
2021/04/01 01:32:39;;;;;;;10.80;9.70;;;;;;;27.24;13.66;94659.28;5098899;28;20048;-43
2021/04/01 01:35:18;;;;;;;11.90;9.93;;;;;;;27.20;13.88;94653.16;5098711;28;20048;-40
2021/04/01 01:37:53;;;;;;;12.30;10.05;;;;;;;27.33;13.95;94646.25;5098573;28;20059;-41
2021/04/01 01:40:22;;;;;;;12.82;9.85;;;;;;;27.40;13.90;94646.22;5098745;28;20044;-41
2021/04/01 01:42:52;;;;;;;11.20;9.75;;;;;;;27.40;13.88;94632.81;5098443;28;20051;-43
2021/04/01 01:45:19;;;;;;;11.77;9.43;;;;;;;27.20;13.88;94629.00;5080782;28;20118;-42
2021/04/01 01:47:47;;;;;;;12.63;9.82;;;;;;;27.38;13.75;94632.44;5083856;28;20044;-41
2021/04/01 01:50:15;;;;;;;13.05;9.50;;;;;;;27.33;13.79;94630.16;5078131;28;20048;-41
2021/04/01 01:52:43;;;;;;;11.07;9.30;;;;;;;27.57;13.91;94633.91;5078309;28;20044;-41
2021/04/01 01:55:11;;;;;;;10.77;9.68;;;;;;;27.41;14.10;94631.66;5077955;28;20044;-41
2021/04/01 01:57:39;;;;;;;12.25;10.90;;;;;;;27.22;14.36;94624.00;5077714;28;20048;-42
2021/04/01 02:00:13;;;;;;;14.88;12.48;;;;;;;27.37;14.24;94622.84;5078125;28;20052;-41
2021/04/01 02:02:48;;;;;;;14.07;11.48;;;;;;;27.22;14.49;94616.72;5060575;28;20640;-41
2021/04/01 02:05:15;;;;;;;16.13;12.25;;;;;;;27.08;14.51;94602.59;5077435;28;20059;-41
2021/04/01 02:07:43;;;;;;;14.52;12.80;;;;;;;27.01;14.45;94592.59;5090773;28;20055;-42
2021/04/01 02:10:10;;;;;;;14.52;11.88;;;;;;;27.21;14.33;94590.28;5098300;28;20450;-42
2021/04/01 02:12:41;;;;;;;12.60;11.35;;;;;;;27.04;14.75;94592.59;5097867;28;20058;-43
2021/04/01 02:15:13;;;;;;;21.73;14.65;;;;;;;27.21;14.56;94595.66;5097872;28;20056;-41
2021/04/01 02:17:40;;;;;;;18.17;15.35;;;;;;;27.17;14.16;94598.34;5085131;28;20056;-41
2021/04/01 02:20:09;;;;;;;16.58;13.90;;;;;;;27.30;14.10;94596.00;5060137;28;20052;-42
2021/04/01 02:22:36;;;;;;;18.92;14.27;;;;;;;27.05;14.51;94614.81;5077597;28;20454;-41
2021/04/01 02:25:04;;;;;;;17.10;13.88;;;;;;;27.13;14.69;94608.31;5077803;28;20486;-41
2021/04/01 02:27:32;;;;;;;16.65;13.30;;;;;;;27.08;14.77;94616.00;5077228;28;20126;-41
2021/04/01 02:30:00;;;;;;;14.60;12.95;;;;;;;26.85;15.01;94611.75;5077531;28;20056;-42
2021/04/01 02:32:27;;;;;;;14.60;12.70;;;;;;;26.98;14.61;94615.56;5076866;28;20045;-42
2021/04/01 02:34:54;;;;;;;17.92;13.00;;;;;;;27.17;14.73;94627.09;5077291;28;20059;-41
2021/04/01 02:37:21;;;;;;;16.83;12.00;;;;;;;26.85;14.74;94627.84;5076933;28;20045;-41
2021/04/01 02:39:48;;;;;;;10.70;9.50;;;;;;;27.14;14.48;94627.88;5077417;28;20359;-41
2021/04/01 02:42:15;;;;;;;10.23;9.00;;;;;;;27.02;14.57;94635.13;5077118;28;20040;-41
2021/04/01 02:44:43;;;;;;;11.55;8.07;;;;;;;26.58;14.58;94640.88;5095485;28;20048;-42
2021/04/01 02:47:10;;;;;;;9.40;7.80;;;;;;;26.95;14.46;94647.78;5079329;28;20458;-41
2021/04/01 02:49:37;;;;;;;8.85;7.72;;;;;;;26.67;14.81;94643.16;5097466;28;20047;-41
2021/04/01 02:52:05;;;;;;;9.40;7.85;;;;;;;26.41;14.93;94653.06;5097465;28;20052;-41
2021/04/01 02:54:32;;;;;;;9.93;7.85;;;;;;;26.63;14.81;94651.19;5081119;28;20056;-41
2021/04/01 02:56:59;;;;;;;10.52;8.57;;;;;;;26.78;14.63;94649.28;5058965;28;20053;-43
2021/04/01 02:59:26;;;;;;;11.02;8.45;;;;;;;26.53;14.84;94651.16;5077126;28;20174;-41
2021/04/01 03:01:53;;;;;;;9.57;8.27;;;;;;;26.54;15.10;94650.03;5076170;28;20056;-42
2021/04/01 03:04:20;;;;;;;10.18;7.90;;;;;;;26.64;14.92;94649.28;5077007;28;20063;-41
2021/04/01 03:06:47;;;;;;;10.52;8.77;;;;;;;26.90;14.71;94658.88;5059110;28;20048;-42
2021/04/01 03:09:15;;;;;;;9.48;8.48;;;;;;;26.70;14.71;94664.59;5076824;28;20052;-41
2021/04/01 03:11:42;;;;;;;11.63;8.60;;;;;;;26.87;14.49;94663.09;5076801;28;20056;-41
2021/04/01 03:14:09;;;;;;;10.10;8.10;;;;;;;26.66;14.69;94663.06;5055508;28;20048;-41
2021/04/01 03:16:36;;;;;;;9.60;8.60;;;;;;;26.66;14.75;94668.44;5096344;28;20493;-41
2021/04/01 03:19:03;;;;;;;10.57;8.90;;;;;;;26.82;14.50;94655.44;5096440;28;20051;-41
2021/04/01 03:21:30;;;;;;;13.93;10.27;;;;;;;26.86;14.51;94644.72;5096898;28;20082;-43
2021/04/01 03:23:57;;;;;;;11.73;9.68;;;;;;;26.70;14.59;94651.19;5096825;28;20051;-42
2021/04/01 03:26:25;;;;;;;11.05;9.45;;;;;;;26.54;14.83;94641.97;5096205;28;20048;-40
2021/04/01 03:28:52;;;;;;;11.35;9.50;;;;;;;26.83;14.43;94637.44;5095596;28;20047;-41
2021/04/01 03:31:19;;;;;;;12.50;10.40;;;;;;;26.89;14.49;94617.88;5096686;28;20048;-41
2021/04/01 03:33:46;;;;;;;11.65;10.40;;;;;;;26.82;14.49;94623.25;5096498;28;20051;-41
2021/04/01 03:36:13;;;;;;;14.98;11.18;;;;;;;26.54;14.82;94623.22;5096354;28;20048;-41
2021/04/01 03:38:44;;;;;;;13.52;11.20;;;;;;;27.02;14.33;94621.72;5095682;28;20358;-42
2021/04/01 03:41:11;;;;;;;14.32;11.63;;;;;;;26.94;14.40;94622.09;5096491;28;20047;-41
2021/04/01 03:43:38;;;;;;;12.77;10.77;;;;;;;26.94;14.28;94608.69;5096157;28;20048;-41
2021/04/01 03:46:07;;;;;;;13.85;11.00;;;;;;;26.83;14.32;94614.06;5096141;28;20043;-40
2021/04/01 03:48:34;;;;;;;12.23;10.02;;;;;;;26.81;14.26;94610.25;5078848;28;20375;-41
2021/04/01 03:51:01;;;;;;;11.30;9.82;;;;;;;26.67;14.40;94611.00;5075960;28;20110;-41
2021/04/01 03:53:28;;;;;;;11.20;9.90;;;;;;;27.13;13.91;94615.59;5075754;28;20044;-42
2021/04/01 03:55:55;;;;;;;11.52;9.85;;;;;;;26.84;14.10;94615.59;5075431;28;20048;-42
2021/04/01 04:14:14;;;;;;;15.70;10.95;;;;;;;26.84;14.31;94618.28;5095459;28;20040;-41
2021/04/01 04:16:41;;;;;;;11.43;10.07;;;;;;;26.83;14.48;94627.47;5094852;28;20044;-42
2021/04/01 04:19:09;;;;;;;14.45;11.05;;;;;;;26.82;14.83;94628.63;5075637;28;20047;-41
2021/04/01 04:21:38;;;;;;;15.45;11.52;;;;;;;26.91;14.57;94620.94;5075476;28;20447;-41
2021/04/01 04:24:08;;;;;;;12.93;9.52;;;;;;;27.10;17.22;94627.09;5075146;28;20143;-46
2021/04/01 04:26:35;;;;;;;10.82;9.43;;;;;;;30.01;14.33;94625.25;5056979;28;20048;-50
2021/04/01 04:29:02;;;;;;;15.70;9.90;;;;;;;31.39;12.67;94627.09;5081266;28;20367;-40
2021/04/01 04:31:29;;;;;;;15.68;10.55;;;;;;;31.85;11.73;94620.88;5090185;28;20056;-44
2021/04/01 04:33:57;;;;;;;12.00;10.70;;;;;;;32.60;11.37;94630.13;5089992;28;20450;-39
2021/04/01 04:36:24;;;;;;;12.18;10.95;;;;;;;32.97;11.02;94628.88;5091839;28;20051;-44
2021/04/01 04:38:51;;;;;;;15.60;11.20;;;;;;;33.53;10.47;94636.03;5090428;28;20040;-47
2021/04/01 04:41:18;;;;;;;13.32;10.75;;;;;;;33.80;10.35;94638.41;5092824;28;20044;-41
2021/04/01 04:43:45;;;;;;;15.93;12.25;;;;;;;34.02;10.13;94642.09;5090840;28;20056;-43
2021/04/01 04:46:13;;;;;;;18.63;12.88;;;;;;;36.44;8.68;94645.13;5086741;28;20051;-41
2021/04/01 04:48:40;;;;;;;22.52;16.75;;;;;;;32.54;10.47;94644.59;5085209;28;20359;-51
2021/04/01 04:51:07;;;;;;;22.80;17.10;;;;;;;28.70;13.46;94648.78;5087477;28;20087;-42
2021/04/01 04:53:35;;;;;;;32.45;18.02;;;;;;;27.09;14.75;94647.81;5085574;28;20048;-42
2021/04/01 04:56:08;;;;;;;28.63;19.38;;;;;;;25.95;15.82;94652.13;5087208;28;20052;-50
2021/04/01 05:09:02;;;;;;;27.15;16.40;;;;;;;23.33;18.74;94674.06;5085556;28;20485;-43
2021/04/01 05:11:32;;;;;;;25.33;17.02;;;;;;;22.91;20.46;94670.75;5079586;28;20049;-43
2021/04/01 05:14:00;;;;;;;27.55;18.20;;;;;;;21.21;21.75;94679.56;5075865;28;20048;-39
2021/04/01 05:16:28;;;;;;;25.95;17.42;;;;;;;21.20;23.25;94680.66;5074600;28;20074;-41
2021/04/01 05:18:57;;;;;;;29.05;17.08;;;;;;;20.85;21.91;94680.63;5074097;28;20055;-41
2021/04/01 05:21:32;;;;;;;27.67;16.63;;;;;;;21.89;20.77;94684.47;5074954;28;20044;-40
2021/04/01 05:24:01;;;;;;;24.63;17.63;;;;;;;20.12;22.37;94681.75;5074946;28;20055;-42
2021/04/01 05:29:13;;;;;;;26.60;16.27;;;;;;;20.31;22.30;94679.25;5075017;28;20049;-54
2021/04/01 05:31:41;;;;;;;26.30;16.58;;;;;;;20.69;21.92;94685.91;5075134;28;20367;-50
2021/04/01 05:34:08;;;;;;;24.27;16.85;;;;;;;20.11;22.69;94679.44;5074972;28;20443;-54
2021/04/01 05:36:40;;;;;;;29.77;16.83;;;;;;;22.47;19.66;94689.78;5074755;28;20052;-55
2021/04/01 05:39:13;;;;;;;27.08;15.65;;;;;;;22.09;19.82;94683.34;5085734;28;20047;-57
2021/04/01 05:41:41;;;;;;;24.20;15.60;;;;;;;19.70;23.22;94691.94;5096530;28;20466;-51
2021/04/01 05:44:16;;;;;;;26.33;16.05;;;;;;;20.26;22.65;94684.78;5077537;28;20048;-53
2021/04/01 05:49:33;;;;;;;25.23;16.27;;;;;;;19.31;23.79;94690.78;5078330;28;20048;-49
2021/04/01 05:56:38;;;;;;;22.42;15.60;;;;;;;19.61;23.69;94694.75;5078645;28;20044;-53
2021/04/01 06:04:03;;;;;;;26.13;15.55;;;;;;;20.18;23.31;94691.03;5098772;28;20063;-56
2021/04/01 06:09:03;;;;;;;22.27;16.33;;;;;;;19.86;23.48;94700.00;5098224;28;20058;-53
2021/04/01 06:11:30;;;;;;;28.80;17.00;;;;;;;19.47;23.72;94693.50;5090794;28;20055;-49
2021/04/01 06:16:42;;;;;;;26.75;16.73;;;;;;;19.75;23.63;94702.31;5097054;28;20750;-43
2021/04/01 06:19:19;;;;;;;27.27;18.13;;;;;;;23.03;20.05;94702.56;5097855;28;20048;-43
2021/04/01 06:21:48;;;;;;;33.78;19.58;;;;;;;21.30;21.43;94701.44;5069593;28;20366;-43
2021/04/01 06:24:25;;;;;;;32.45;19.08;;;;;;;21.18;21.80;94717.47;5077650;28;20048;-42
2021/04/01 06:27:14;;;;;;;29.05;18.88;;;;;;;20.82;21.56;94718.50;5077438;28;20048;-43
2021/04/01 06:32:33;;;;;;;22.75;17.50;;;;;;;21.99;20.27;94721.16;5077472;28;20064;-43
2021/04/01 06:35:26;;;;;;;21.77;14.88;;;;;;;23.91;17.16;94710.31;5077501;28;20055;-44
2021/04/01 06:40:48;;;;;;;20.40;13.68;;;;;;;23.52;17.36;94707.88;5097739;28;20052;-43
2021/04/01 06:43:22;;;;;;;15.93;12.52;;;;;;;23.60;17.12;94708.78;5097337;28;20059;-43
2021/04/01 06:45:57;;;;;;;17.92;12.55;;;;;;;22.84;18.45;94723.94;5077044;28;20055;-43
2021/04/01 06:48:37;;;;;;;15.73;12.50;;;;;;;23.94;17.01;94713.06;5076983;28;20056;-43
2021/04/01 06:51:09;;;;;;;17.23;11.57;;;;;;;23.88;16.85;94719.81;5077285;28;20087;-43
2021/04/01 06:53:54;;;;;;;15.38;11.80;;;;;;;23.68;17.14;94721.06;5059389;28;20064;-44
2021/04/01 06:56:34;;;;;;;18.45;12.93;;;;;;;24.20;16.61;94724.78;5061913;28;20044;-43
2021/04/01 07:01:52;;;;;;;15.73;12.57;;;;;;;24.27;17.29;94725.66;5077086;28;20044;-42
2021/04/01 07:04:21;;;;;;;15.93;12.10;;;;;;;23.69;17.46;94727.97;5076684;28;20357;-42
2021/04/01 07:06:54;;;;;;;25.05;22.83;;;;;;;23.97;17.52;94723.00;5076962;28;20067;-43
2021/04/01 07:09:45;;;;;;;14.05;11.82;;;;;;;25.06;16.85;94724.59;5076505;28;20040;-43
2021/04/01 07:12:20;;;;;;;15.68;12.10;;;;;;;25.69;16.57;94725.44;5076840;28;20055;-43
2021/04/01 07:14:50;;;;;;;14.93;12.80;;;;;;;25.53;16.46;94715.03;5076556;28;20051;-42
2021/04/01 07:17:27;;;;;;;14.02;11.95;;;;;;;25.33;17.25;94719.06;5059447;28;20048;-42
2021/04/01 07:47:43;;;;;;;14.43;10.43;;;;;;;26.88;15.80;94750.47;5093542;28;20049;-43
2021/04/01 07:50:14;;;;;;;13.05;11.05;;;;;;;26.80;15.65;94743.53;5058912;28;20051;-44
2021/04/01 07:52:42;;;;;;;13.65;11.38;;;;;;;27.50;15.38;94741.31;5075843;28;20048;-44
2021/04/01 08:05:57;;;;;;;13.77;11.20;;;;;;;26.98;16.01;94725.56;5075631;28;20064;-43
2021/04/01 08:08:25;;;;;;;17.55;11.13;;;;;;;27.54;15.42;94740.16;5065186;28;20047;-43
2021/04/01 08:10:58;;;;;;;16.02;10.73;;;;;;;27.39;15.74;94741.31;5078325;28;20048;-43
2021/04/01 08:13:31;;;;;;;13.43;10.73;;;;;;;26.64;16.11;94745.81;5077689;28;20048;-42
2021/04/01 08:16:03;;;;;;;12.27;10.88;;;;;;;27.18;16.01;94738.63;5078187;28;20040;-43
2021/04/01 08:18:38;;;;;;;14.98;10.57;;;;;;;27.44;15.68;94743.63;5095898;28;20334;-44
2021/04/01 08:21:08;;;;;;;13.40;10.63;;;;;;;27.83;15.81;94740.13;5083066;28;20469;-42
2021/04/01 08:23:58;;;;;;;13.75;10.27;;;;;;;27.55;15.95;94732.88;5075505;28;20450;-44
2021/04/01 08:36:54;;;;;;;12.63;9.63;;;;;;;28.70;14.35;94718.72;5057724;28;20049;-43
2021/04/01 08:39:23;;;;;;;9.55;8.55;;;;;;;27.62;15.56;94712.19;5088666;28;20074;-45
2021/04/01 08:41:53;;;;;;;11.15;9.55;;;;;;;27.51;15.39;94710.63;5095828;28;20044;-44
2021/04/01 08:44:38;;;;;;;11.15;8.43;;;;;;;28.15;15.12;94713.19;5095062;28;20059;-43
2021/04/01 08:47:27;;;;;;;11.48;8.38;;;;;;;28.15;14.74;94702.44;5077911;28;20052;-42
2021/04/01 08:50:37;;;;;;;9.70;7.78;;;;;;;28.23;15.06;94696.63;5075453;28;20446;-44
2021/04/01 08:53:12;;;;;;;11.23;7.40;;;;;;;27.24;16.80;94702.97;5074821;28;20107;-44
2021/04/01 08:55:52;;;;;;;10.52;8.13;;;;;;;28.14;14.94;94699.00;5075231;28;20056;-42
2021/04/01 08:58:37;;;;;;;9.55;8.07;;;;;;;28.47;14.37;94699.63;5057680;28;20371;-43
2021/04/01 09:01:16;;;;;;;8.88;7.45;;;;;;;27.46;16.29;94698.38;5057835;28;20082;-44
2021/04/01 09:03:46;;;;;;;9.05;7.07;;;;;;;29.00;14.75;94693.19;5075149;28;20063;-44
2021/04/01 09:06:17;;;;;;;8.48;7.57;;;;;;;27.14;16.06;94698.41;5057824;28;20354;-44
2021/04/01 09:08:54;;;;;;;9.57;6.90;;;;;;;29.77;14.44;94697.13;5065505;28;20036;-43
2021/04/01 09:14:45;;;;;;;14.90;12.20;;;;;;;28.75;14.15;94686.03;5094796;28;20051;-44
2021/04/01 09:17:08;;;;;;;14.63;7.28;;;;;;;29.16;14.14;94680.75;5073261;28;20045;-44
2021/04/01 09:19:38;;;;;;;10.50;6.80;;;;;;;28.56;14.14;94686.50;5081317;28;20071;-44
2021/04/01 09:22:15;;;;;;;7.43;6.60;;;;;;;27.10;15.94;94683.44;5099115;28;20052;-43
2021/04/01 09:24:43;;;;;;;9.60;6.95;;;;;;;28.74;15.59;94683.72;5084316;28;20443;-44
2021/04/01 09:27:12;;;;;;;26.20;20.52;;;;;;;28.68;15.43;94675.31;5078939;28;20354;-43
2021/04/01 09:29:41;;;;;;;10.07;8.75;;;;;;;29.65;13.47;94684.16;5079223;28;20044;-43
2021/04/01 09:32:13;;;;;;;10.32;7.78;;;;;;;28.63;14.79;94670.34;5078861;28;20048;-43
2021/04/01 09:34:44;;;;;;;9.23;7.53;;;;;;;28.94;13.63;94673.25;5078656;28;20382;-42
2021/04/01 09:37:14;;;;;;;12.10;7.05;;;;;;;28.42;14.36;94670.47;5078755;28;20055;-42
2021/04/01 09:39:42;;;;;;;9.73;6.63;;;;;;;28.58;14.24;94662.69;5078435;28;20362;-44
2021/04/01 09:42:12;;;;;;;8.23;6.97;;;;;;;31.12;12.57;94670.34;5078274;28;20055;-44
2021/04/01 09:44:53;;;;;;;9.48;6.88;;;;;;;30.29;12.23;94693.50;5095939;28;20454;-43
2021/04/01 09:47:34;;;;;;;8.40;7.53;;;;;;;27.91;14.30;94671.81;5098724;28;20051;-43
2021/04/01 09:50:11;;;;;;;10.73;7.25;;;;;;;28.70;13.78;94664.94;5098834;28;20454;-43
2021/04/01 09:52:39;;;;;;;10.05;6.95;;;;;;;29.27;13.40;94656.44;5098386;28;20592;-44
2021/04/01 09:55:14;;;;;;;8.98;6.90;;;;;;;29.37;13.40;94662.88;5098519;28;20055;-43
2021/04/01 09:57:53;;;;;;;9.00;6.20;;;;;;;30.20;11.90;94658.19;5098538;28;20051;-43
2021/04/01 10:03:13;;;;;;;7.65;6.10;;;;;;;29.18;13.43;94631.91;5098407;28;20059;-43
2021/04/01 10:05:43;;;;;;;7.88;5.80;;;;;;;28.76;13.93;94636.44;5078067;28;20489;-44
2021/04/01 10:08:22;;;;;;;19.00;15.88;;;;;;;31.38;11.29;94641.03;5078151;28;20040;-42
2021/04/01 10:10:51;;;;;;;8.20;7.40;;;;;;;30.87;11.76;94626.81;5077754;28;20056;-43
2021/04/01 10:13:26;;;;;;;8.25;6.63;;;;;;;29.39;13.05;94618.22;5084381;28;20055;-42
2021/04/01 10:15:56;;;;;;;8.27;5.82;;;;;;;31.15;11.15;94626.34;5085023;28;20045;-44
2021/04/01 10:18:31;;;;;;;8.60;6.43;;;;;;;28.21;13.33;94615.63;5077844;28;20048;-43
2021/04/01 10:21:04;;;;;;;7.10;5.80;;;;;;;30.74;11.63;94625.88;5077564;28;20068;-43
2021/04/01 10:23:46;;;;;;;7.53;5.45;;;;;;;29.04;12.25;94623.94;5078043;28;20479;-44
2021/04/01 10:26:14;;;;;;;7.30;5.35;;;;;;;30.37;11.30;94614.78;5077784;28;20382;-43
2021/04/01 10:28:59;;;;;;;6.40;4.97;;;;;;;28.96;12.41;94606.34;5076506;28;20078;-43
2021/04/01 10:31:26;;;;;;;6.80;5.18;;;;;;;29.28;12.80;94601.41;5077533;28;20040;-42
2021/04/01 10:33:55;;;;;;;7.82;4.82;;;;;;;27.84;13.95;94600.06;5077782;28;20048;-43
2021/04/01 10:36:26;;;;;;;25.55;17.02;;;;;;;28.51;13.59;94606.25;5077473;28;20464;-43
2021/04/01 10:39:08;;;;;;;8.85;6.47;;;;;;;30.00;11.48;94596.78;5077499;28;20044;-44
2021/04/01 10:41:53;;;;;;;8.60;5.28;;;;;;;29.11;13.88;94596.97;5077466;28;20040;-44
2021/04/01 10:44:21;;;;;;;6.47;5.03;;;;;;;28.79;13.21;94592.59;5092252;28;20055;-44
2021/04/01 10:46:57;;;;;;;5.43;4.70;;;;;;;30.66;11.11;94582.03;5097559;28;20048;-44
2021/04/01 10:49:32;;;;;;;8.48;4.82;;;;;;;31.38;9.99;94584.31;5097781;28;20040;-50
2021/04/01 10:52:05;;;;;;;7.63;5.40;;;;;;;28.28;14.15;94579.16;5097641;28;20044;-46
2021/04/01 10:54:37;;;;;;;8.18;5.32;;;;;;;29.39;13.72;94577.84;5097418;28;20051;-54
2021/04/01 10:57:12;;;;;;;6.15;5.07;;;;;;;30.24;12.38;94586.09;5064114;28;20049;-57
2021/04/01 10:59:42;;;;;;;7.65;5.10;;;;;;;28.94;13.41;94579.06;5090338;28;20122;-43
2021/04/01 11:02:17;;;;;;;7.63;4.82;;;;;;;29.67;12.04;94574.09;5084536;28;20044;-60
2021/04/01 11:04:58;;;;;;;9.93;5.18;;;;;;;32.29;9.81;94575.56;5077117;28;20059;-60
2021/04/01 11:07:32;;;;;;;6.72;4.90;;;;;;;31.13;10.62;94565.81;5060047;28;20118;-54
2021/04/01 11:09:59;;;;;;;8.73;5.15;;;;;;;28.17;13.68;94558.47;5078494;28;20362;-48
2021/04/01 11:12:28;;;;;;;7.75;5.13;;;;;;;29.38;12.38;94562.84;5070007;28;20040;-58
2021/04/01 11:15:05;;;;;;;7.07;4.82;;;;;;;28.93;11.67;94551.41;5076666;28;20063;-51
2021/04/01 11:17:37;;;;;;;5.22;4.60;;;;;;;29.25;12.25;94558.38;5076810;28;20048;-64
2021/04/01 11:20:05;;;;;;;6.00;4.82;;;;;;;28.34;13.10;94550.69;5076981;28;20443;-53
2021/04/01 11:22:32;;;;;;;6.63;4.60;;;;;;;28.76;12.57;94544.22;5076775;28;20044;-54
2021/04/01 11:25:11;;;;;;;5.70;4.65;;;;;;;29.49;11.31;94545.84;5083520;28;20052;-58
2021/04/01 11:27:54;;;;;;;5.75;4.65;;;;;;;29.81;11.24;94546.22;5097175;28;20450;-60
2021/04/01 11:30:24;;;;;;;7.28;4.38;;;;;;;28.38;12.77;94532.63;5097289;28;20054;-57
2021/04/01 11:32:53;;;;;;;6.75;4.25;;;;;;;29.69;11.95;94533.28;5061668;28;20040;-57
2021/04/01 11:35:22;;;;;;;8.50;5.30;;;;;;;29.40;12.52;94525.50;5076462;28;20059;-59
2021/04/01 11:37:51;;;;;;;5.63;4.57;;;;;;;30.37;11.27;94525.81;5075232;28;20051;-57
2021/04/01 11:40:19;;;;;;;7.50;5.72;;;;;;;29.09;12.99;94529.31;5095836;28;20048;-56
2021/04/01 11:43:01;;;;;;;13.40;11.75;;;;;;;29.29;13.53;94518.72;5078221;28;20362;-43
2021/04/01 11:45:36;;;;;;;9.25;8.02;;;;;;;30.42;11.60;94521.09;5096714;28;20390;-56
2021/04/01 11:48:04;;;;;;;7.40;4.90;;;;;;;29.48;11.67;94517.41;5096870;28;20055;-45
2021/04/01 11:50:32;;;;;;;6.82;4.30;;;;;;;30.05;10.71;94523.59;5083777;28;20443;-51
2021/04/01 11:53:01;;;;;;;5.18;4.50;;;;;;;29.66;10.89;94517.91;5094407;28;20373;-53
2021/04/01 11:55:29;;;;;;;7.97;4.40;;;;;;;29.14;11.31;94505.41;5096524;28;20047;-60
2021/04/01 11:57:57;;;;;;;4.97;4.40;;;;;;;28.36;13.25;94505.34;5081773;28;20055;-56
2021/04/01 12:00:29;;;;;;;5.13;4.10;;;;;;;29.32;12.57;94504.47;5078576;28;20465;-59
2021/04/01 12:03:04;;;;;;;4.50;3.97;;;;;;;28.50;12.80;94497.19;5093219;28;20055;-43
2021/04/01 12:05:37;;;;;;;7.28;6.43;;;;;;;29.32;11.88;94497.16;5096653;28;20052;-47
2021/04/01 12:08:04;;;;;;;11.73;7.80;;;;;;;30.05;10.69;94502.03;5088307;28;20047;-57
2021/04/01 12:10:31;;;;;;;5.72;4.70;;;;;;;28.99;11.87;94497.91;5078690;28;20445;-61
2021/04/01 12:13:00;;;;;;;7.57;4.70;;;;;;;29.03;12.70;94490.56;5074053;28;20360;-50
2021/04/01 12:15:35;;;;;;;6.70;4.57;;;;;;;29.16;11.73;94486.19;5076322;28;20083;-62
2021/04/01 12:18:05;;;;;;;6.30;4.30;;;;;;;29.38;11.70;94486.69;5076176;28;20044;-43
2021/04/01 12:20:33;;;;;;;5.53;4.35;;;;;;;28.53;12.15;94474.88;5075954;28;20091;-52
2021/04/01 12:23:20;;;;;;;5.78;4.82;;;;;;;30.57;10.20;94476.56;5075245;28;20044;-44
2021/04/01 12:25:48;;;;;;;7.65;5.43;;;;;;;29.97;10.26;94480.97;5075455;28;20055;-44
2021/04/01 12:28:23;;;;;;;6.65;4.60;;;;;;;30.34;9.56;94478.09;5075527;28;20045;-42
2021/04/01 12:30:51;;;;;;;4.88;4.38;;;;;;;29.62;11.07;94479.50;5075465;28;20052;-44
2021/04/01 12:33:20;;;;;;;7.10;4.53;;;;;;;29.30;11.45;94472.56;5075274;28;20044;-44
2021/04/01 12:36:01;;;;;;;6.05;4.45;;;;;;;29.55;11.16;94474.22;5057811;28;20055;-43
2021/04/01 12:38:39;;;;;;;6.00;4.53;;;;;;;31.62;8.85;94466.91;5075190;28;20055;-44
2021/04/01 12:41:09;;;;;;;5.50;4.65;;;;;;;28.33;11.62;94455.84;5074608;28;20059;-44
2021/04/01 12:43:39;;;;;;;6.50;4.57;;;;;;;27.84;11.74;94454.25;5077245;28;20052;-52
2021/04/01 12:46:06;;;;;;;5.13;4.28;;;;;;;29.51;10.57;94455.41;5075248;28;20083;-43
2021/04/01 12:48:48;;;;;;;9.93;4.43;;;;;;;29.24;11.07;94441.88;5075179;28;20047;-43
2021/04/01 12:51:20;;;;;;;5.55;4.65;;;;;;;27.52;12.10;94449.06;5074197;28;20044;-43
2021/04/01 12:54:02;;;;;;;7.55;4.60;;;;;;;31.61;8.53;94449.16;5075318;28;20044;-43
2021/04/01 12:56:39;;;;;;;;;;;;;;;30.66;8.72;94442.50;5075584;28;20048;-43
2021/04/01 12:59:13;;;;;;;5.72;4.38;;;;;;;27.99;11.04;94433.44;5074946;28;20230;-43
2021/04/01 13:02:26;;;;;;;5.35;4.43;;;;;;;28.25;11.59;94435.56;5074972;28;20056;-42
2021/04/01 13:04:29;;;;;;;5.32;4.18;;;;;;;28.03;11.83;94429.56;5057905;28;20059;-43
2021/04/01 13:12:15;;;;;;;7.03;6.10;;;;;;;28.38;12.62;94428.56;5074714;28;20056;-43
2021/04/01 13:14:43;;;;;;;9.32;5.55;;;;;;;28.65;12.26;94423.31;5092969;28;20048;-44
2021/04/01 13:17:11;;;;;;;6.72;5.00;;;;;;;29.44;11.66;94421.28;5095236;28;20052;-44
2021/04/01 13:19:38;;;;;;;7.07;4.55;;;;;;;30.04;11.28;94418.88;5095152;28;20079;-44
2021/04/01 13:27:18;;;;;;;5.97;4.22;;;;;;;29.38;11.00;94422.84;5095084;28;20048;-44
2021/04/01 13:29:53;;;;;;;4.85;3.72;;;;;;;29.04;11.30;94411.34;5095208;28;20353;-43
2021/04/01 13:32:44;;;;;;;5.70;3.80;;;;;;;29.25;10.43;94418.41;5094909;28;20048;-44
2021/04/01 13:35:22;;;;;;;5.53;3.63;;;;;;;31.08;8.86;94402.41;5080233;28;20051;-43
2021/04/01 13:40:23;;;;;;;4.75;3.80;;;;;;;28.50;10.82;94400.41;5074634;28;20041;-43
2021/04/01 13:42:57;;;;;;;7.20;3.70;;;;;;;28.73;9.96;94408.59;5074130;28;20071;-42
2021/04/01 13:45:25;;;;;;;4.55;3.90;;;;;;;28.11;11.15;94398.81;5074643;28;20055;-44